createdAt,value
2019-04-26T00:01:17.035Z,1.53
2019-04-26T00:03:47.232Z,1.77
2019-04-26T00:06:16.853Z,1.70
2019-04-26T00:08:49.661Z,1.80
2019-04-26T00:11:36.921Z,1.90
2019-04-26T00:14:24.788Z,2.40
2019-04-26T00:16:54.848Z,1.77
2019-04-26T00:19:25.690Z,1.50
2019-04-26T00:21:54.850Z,1.60
2019-04-26T00:24:28.484Z,1.80
2019-04-26T00:26:56.116Z,1.83
2019-04-26T00:29:24.854Z,1.90
2019-04-26T00:31:56.203Z,1.60
2019-04-26T00:34:24.760Z,1.93
2019-04-26T00:36:57.077Z,1.90
2019-04-26T00:39:28.110Z,1.73
2019-04-26T00:42:01.289Z,2.50
2019-04-26T00:44:32.960Z,2.33
2019-04-26T00:47:03.934Z,1.83
2019-04-26T00:49:43.524Z,2.27
2019-04-26T00:52:08.056Z,1.80
2019-04-26T00:54:41.221Z,2.07
2019-04-26T00:57:10.863Z,1.63
2019-04-26T00:59:49.846Z,3.10
2019-04-26T01:02:40.865Z,2.03
2019-04-26T01:05:21.547Z,2.67
2019-04-26T01:07:57.665Z,2.37
2019-04-26T01:10:26.115Z,2.40
2019-04-26T01:12:54.537Z,3.03
2019-04-26T01:15:23.560Z,2.33
2019-04-26T01:17:54.801Z,2.40
2019-04-26T01:20:26.774Z,2.10
2019-04-26T01:22:58.305Z,1.97
2019-04-26T01:25:41.609Z,2.50
2019-04-26T01:28:13.156Z,2.37
2019-04-26T01:30:43.571Z,2.50
2019-04-26T01:33:13.882Z,2.37
2019-04-26T01:35:45.775Z,2.50
2019-04-26T01:38:15.977Z,2.37
2019-04-26T01:40:48.644Z,3.23
2019-04-26T01:43:29.289Z,2.47
2019-04-26T01:46:03.089Z,2.50
2019-04-26T01:48:44.759Z,3.03
2019-04-26T01:51:16.293Z,2.80
2019-04-26T01:53:51.258Z,3.73
2019-04-26T01:56:23.508Z,2.90
2019-04-26T01:58:52.502Z,3.00
2019-04-26T02:01:38.842Z,2.77
2019-04-26T02:04:11.683Z,2.60
2019-04-26T02:06:40.092Z,3.30
2019-04-26T02:09:10.211Z,2.53
2019-04-26T02:11:39.753Z,2.93
2019-04-26T02:14:11.914Z,3.20
2019-04-26T02:16:41.136Z,3.17
2019-04-26T02:19:09.799Z,3.20
2019-04-26T02:21:43.536Z,2.80
2019-04-26T02:24:14.604Z,3.30
2019-04-26T02:26:47.906Z,3.60
2019-04-26T02:29:28.982Z,3.90
2019-04-26T02:32:00.733Z,4.00
2019-04-26T02:34:33.835Z,4.50
2019-04-26T02:37:05.218Z,4.27
2019-04-26T02:39:37.690Z,4.47
2019-04-26T02:42:11.621Z,4.63
2019-04-26T02:44:59.925Z,5.23
2019-04-26T02:47:37.314Z,5.77
2019-04-26T02:50:13.508Z,5.10
2019-04-26T02:52:58.548Z,4.80
2019-04-26T02:55:54.265Z,4.37
2019-04-26T02:58:25.727Z,5.03
2019-04-26T03:00:55.732Z,6.57
2019-04-26T03:03:25.675Z,5.03
2019-04-26T03:05:56.642Z,6.20
2019-04-26T03:08:29.840Z,5.40
2019-04-26T03:11:03.247Z,6.13
2019-04-26T03:13:41.672Z,5.47
2019-04-26T03:16:31.396Z,6.00
2019-04-26T03:19:08.451Z,8.00
2019-04-26T03:22:11.708Z,6.97
2019-04-26T03:25:05.968Z,6.93
2019-04-26T03:27:43.588Z,6.60
2019-04-26T03:30:39.151Z,7.13
2019-04-26T03:33:18.752Z,7.40
2019-04-26T03:36:00.613Z,8.63
2019-04-26T03:38:43.613Z,8.10
2019-04-26T03:41:26.536Z,10.60
2019-04-26T03:43:59.090Z,7.33
2019-04-26T03:46:38.784Z,8.10
2019-04-26T03:49:46.460Z,9.57
2019-04-26T03:52:45.657Z,10.77
2019-04-26T03:55:27.949Z,8.83
2019-04-26T03:58:07.229Z,7.17
2019-04-26T04:00:41.526Z,9.47
2019-04-26T04:03:41.368Z,9.70
2019-04-26T04:06:12.500Z,9.33
2019-04-26T04:08:56.040Z,8.57
2019-04-26T04:11:37.513Z,10.27
2019-04-26T04:14:21.392Z,10.60
2019-04-26T04:16:57.109Z,9.53
2019-04-26T04:19:37.259Z,9.30
2019-04-26T04:22:14.720Z,8.33
2019-04-26T04:24:56.776Z,9.33
2019-04-26T04:27:38.233Z,8.60
2019-04-26T04:30:33.580Z,10.10
2019-04-26T04:33:18.504Z,9.43
2019-04-26T04:35:53.067Z,9.93
2019-04-26T04:38:40.887Z,9.40
2019-04-26T04:41:26.380Z,10.87
2019-04-26T04:44:22.207Z,9.70
2019-04-26T04:47:24.313Z,8.77
2019-04-26T04:49:55.874Z,11.10
2019-04-26T04:52:30.443Z,13.00
2019-04-26T04:55:19.923Z,11.20
2019-04-26T04:58:09.566Z,11.20
2019-04-26T05:01:26.377Z,10.40
2019-04-26T05:04:14.771Z,10.30
2019-04-26T05:07:16.474Z,9.27
2019-04-26T05:10:00.216Z,9.97
2019-04-26T05:12:47.845Z,9.10
2019-04-26T05:15:48.462Z,8.67
2019-04-26T05:18:29.182Z,8.03
2019-04-26T05:21:06.687Z,8.07
2019-04-26T05:23:51.009Z,7.70
2019-04-26T05:26:42.569Z,6.03
2019-04-26T05:29:32.385Z,5.40
2019-04-26T05:32:20.555Z,5.07
2019-04-26T05:35:11.945Z,4.70
2019-04-26T05:38:18.036Z,4.37
2019-04-26T05:40:53.530Z,5.77
2019-04-26T05:43:49.169Z,5.07
2019-04-26T05:46:57.897Z,5.93
2019-04-26T05:49:55.851Z,4.87
2019-04-26T05:52:55.265Z,4.97
2019-04-26T05:55:56.043Z,6.73
2019-04-26T05:58:33.988Z,5.30
2019-04-26T06:01:19.159Z,7.03
2019-04-26T06:04:18.581Z,5.30
2019-04-26T06:07:06.860Z,5.33
2019-04-26T06:09:56.509Z,5.40
2019-04-26T06:12:44.863Z,6.80
2019-04-26T06:15:33.189Z,7.10
2019-04-26T06:18:21.250Z,6.70
2019-04-26T06:20:55.561Z,6.33
2019-04-26T06:23:45.359Z,7.33
2019-04-26T06:26:39.385Z,9.33
2019-04-26T06:29:28.706Z,11.20
2019-04-26T06:32:15.440Z,11.57
2019-04-26T06:34:48.782Z,8.00
2019-04-26T06:37:36.259Z,10.73
2019-04-26T06:40:10.462Z,7.80
2019-04-26T06:42:50.630Z,8.23
2019-04-26T06:45:23.721Z,8.70
2019-04-26T06:47:59.527Z,8.07
2019-04-26T06:50:49.337Z,7.20
2019-04-26T06:53:21.116Z,8.70
2019-04-26T06:56:08.838Z,9.53
2019-04-26T06:59:04.428Z,8.27
2019-04-26T07:01:44.913Z,7.90
2019-04-26T07:04:37.328Z,6.23
2019-04-26T07:07:25.865Z,6.30
2019-04-26T07:09:58.770Z,6.30
2019-04-26T07:12:41.481Z,6.40
2019-04-26T07:15:29.661Z,5.73
2019-04-26T07:18:17.756Z,5.37
2019-04-26T07:21:06.987Z,5.20
2019-04-26T07:23:57.222Z,6.07
2019-04-26T07:26:59.226Z,5.07
2019-04-26T07:29:51.930Z,5.50
2019-04-26T07:32:47.085Z,6.27
2019-04-26T07:35:27.269Z,5.80
2019-04-26T07:38:18.222Z,5.40
2019-04-26T07:41:21.314Z,5.67
2019-04-26T07:44:11.776Z,4.43
2019-04-26T07:47:08.516Z,5.97
2019-04-26T07:50:14.182Z,4.80
2019-04-26T07:53:20.923Z,7.20
2019-04-26T07:55:58.072Z,4.17
2019-04-26T07:58:50.528Z,3.80
2019-04-26T08:05:05.945Z,4.20
2019-04-26T08:07:40.236Z,4.03
2019-04-26T08:10:17.377Z,3.50
2019-04-26T08:12:54.662Z,3.30
2019-04-26T08:15:46.201Z,3.03
2019-04-26T08:18:22.128Z,2.73
2019-04-26T08:20:55.251Z,2.80
2019-04-26T08:23:39.691Z,3.37
2019-04-26T08:26:09.132Z,2.73
2019-04-26T08:28:40.737Z,2.53
2019-04-26T08:31:15.519Z,2.87
2019-04-26T08:33:48.787Z,4.93
2019-04-26T08:36:23.187Z,3.03
2019-04-26T08:38:54.058Z,3.53
2019-04-26T08:41:26.049Z,3.57
2019-04-26T08:44:17.826Z,3.43
2019-04-26T08:46:52.342Z,3.17
2019-04-26T08:49:35.107Z,3.80
2019-04-26T08:52:14.180Z,4.27
2019-04-26T08:54:39.894Z,3.43
2019-04-26T08:57:11.560Z,3.60
2019-04-26T08:59:46.003Z,3.17
2019-04-26T09:02:35.360Z,3.90
2019-04-26T09:05:23.836Z,3.70
2019-04-26T09:07:58.932Z,4.33
2019-04-26T09:10:31.010Z,4.83
2019-04-26T09:13:04.613Z,4.33
2019-04-26T09:16:01.741Z,4.97
2019-04-26T09:18:42.062Z,3.37
2019-04-26T09:21:04.640Z,3.60
2019-04-26T09:23:40.417Z,3.60
2019-04-26T09:26:12.873Z,3.40
2019-04-26T09:29:00.861Z,3.67
2019-04-26T09:31:36.815Z,3.63
2019-04-26T09:34:12.850Z,3.67
2019-04-26T09:36:44.966Z,4.20
2019-04-26T09:39:18.120Z,3.93
2019-04-26T09:41:52.328Z,4.53
2019-04-26T09:44:22.357Z,3.97
2019-04-26T09:46:58.634Z,3.80
2019-04-26T09:49:41.170Z,3.70
2019-04-26T09:52:30.656Z,4.10
2019-04-26T09:55:02.278Z,3.20
2019-04-26T09:57:33.682Z,3.60
2019-04-26T10:00:02.081Z,4.03
2019-04-26T10:02:34.225Z,3.30
2019-04-26T10:05:08.155Z,3.33
2019-04-26T10:07:37.621Z,3.10
2019-04-26T10:10:07.341Z,3.40
2019-04-26T10:12:37.381Z,3.00
2019-04-26T10:15:26.802Z,3.30
2019-04-26T10:17:55.177Z,5.57
2019-04-26T10:20:23.583Z,3.27
2019-04-26T10:22:51.974Z,3.57
2019-04-26T10:25:20.454Z,3.50
2019-04-26T10:27:48.858Z,3.03
2019-04-26T10:30:19.433Z,3.63
2019-04-26T10:32:48.022Z,3.27
2019-04-26T10:35:17.510Z,3.50
2019-04-26T10:37:48.135Z,3.50
2019-04-26T10:40:17.367Z,3.30
2019-04-26T10:42:45.788Z,2.60
2019-04-26T10:45:18.509Z,3.07
2019-04-26T10:47:48.393Z,2.80
2019-04-26T10:50:17.055Z,3.30
2019-04-26T10:52:54.382Z,2.73
2019-04-26T10:55:22.127Z,2.90
2019-04-26T10:57:54.107Z,2.80
2019-04-26T11:00:24.240Z,4.53
2019-04-26T11:02:52.661Z,2.80
2019-04-26T11:05:23.939Z,3.60
2019-04-26T11:07:53.487Z,2.80
2019-04-26T11:10:24.502Z,2.97
2019-04-26T11:12:53.429Z,3.00
2019-04-26T11:15:22.202Z,2.57
2019-04-26T11:17:54.623Z,2.97
2019-04-26T11:20:21.625Z,3.20
2019-04-26T11:22:50.113Z,2.90
2019-04-26T11:25:18.538Z,3.30
2019-04-26T11:27:48.687Z,2.80
2019-04-26T11:30:21.176Z,3.20
2019-04-26T11:32:54.152Z,3.27
2019-04-26T11:35:19.843Z,3.27
2019-04-26T11:37:50.727Z,3.00
2019-04-26T11:40:19.457Z,3.40
2019-04-26T11:42:48.060Z,3.00
2019-04-26T11:45:16.576Z,2.63
2019-04-26T11:47:55.484Z,3.07
2019-04-26T11:50:20.550Z,3.13
2019-04-26T11:52:53.289Z,2.70
2019-04-26T11:55:25.312Z,2.83
2019-04-26T11:57:55.070Z,2.83
2019-04-26T12:00:30.953Z,2.83
2019-04-26T12:03:07.887Z,3.43
2019-04-26T12:05:43.832Z,3.53
2019-04-26T12:08:17.213Z,2.93
2019-04-26T12:10:45.897Z,2.43
2019-04-26T12:13:16.057Z,2.90
2019-04-26T12:15:45.417Z,4.27
2019-04-26T12:18:19.375Z,2.67
2019-04-26T12:20:49.420Z,2.73
2019-04-26T12:23:20.923Z,2.70
2019-04-26T12:25:56.895Z,2.97
2019-04-26T12:28:28.266Z,2.63
2019-04-26T12:31:00.177Z,2.80
2019-04-26T12:33:29.325Z,3.03
2019-04-26T12:35:59.429Z,3.10
2019-04-26T12:38:30.047Z,2.63
2019-04-26T12:41:01.585Z,2.70
2019-04-26T12:43:30.117Z,2.90
2019-04-26T12:46:03.171Z,3.10
2019-04-26T12:48:31.593Z,2.93
2019-04-26T12:51:00.004Z,2.90
2019-04-26T12:53:31.340Z,2.67
2019-04-26T12:56:05.922Z,2.50
2019-04-26T12:58:34.783Z,2.00
2019-04-26T13:01:07.848Z,2.20
2019-04-26T13:03:35.664Z,2.47
2019-04-26T13:06:04.227Z,3.37
2019-04-26T13:08:36.562Z,2.33
2019-04-26T13:11:16.160Z,2.70
2019-04-26T13:13:46.303Z,2.40
2019-04-26T13:16:28.681Z,2.27
2019-04-26T13:18:57.336Z,2.20
2019-04-26T13:21:28.735Z,2.03
2019-04-26T13:24:09.450Z,2.33
2019-04-26T13:26:37.822Z,2.37
2019-04-26T13:29:09.077Z,1.90
2019-04-26T13:31:39.113Z,1.87
2019-04-26T13:34:10.215Z,1.95
2019-04-26T13:36:41.325Z,1.90
2019-04-26T13:39:13.360Z,1.85
2019-04-26T13:41:45.974Z,1.95
2019-04-26T13:49:32.774Z,2.92
2019-04-26T13:52:06.003Z,1.50
2019-04-26T13:54:39.707Z,2.50
2019-04-26T13:57:10.145Z,1.90
2019-04-26T13:59:42.770Z,2.45
2019-04-26T14:02:17.683Z,1.92
2019-04-26T14:04:49.370Z,1.80
2019-04-26T14:07:20.181Z,1.72
2019-04-26T14:09:47.989Z,1.55
2019-04-26T14:12:19.288Z,1.95
2019-04-26T14:14:47.667Z,2.08
2019-04-26T14:17:19.046Z,1.75
2019-04-26T14:19:49.581Z,2.05
2019-04-26T14:22:19.569Z,1.72
2019-04-26T14:24:53.122Z,1.85
2019-04-26T14:27:21.605Z,2.20
2019-04-26T14:29:50.034Z,2.20
2019-04-26T14:32:22.957Z,4.50
2019-04-26T14:34:54.239Z,2.63
2019-04-26T14:37:24.274Z,1.70
2019-04-26T14:40:16.008Z,3.13
2019-04-26T14:42:34.305Z,1.60
2019-04-26T14:45:02.284Z,1.70
2019-04-26T14:47:46.699Z,1.53
2019-04-26T14:50:14.023Z,1.90
2019-04-26T14:52:39.732Z,1.70
2019-04-26T14:55:08.289Z,2.13
2019-04-26T14:57:39.357Z,3.20
2019-04-26T15:00:16.855Z,1.53
2019-04-26T15:02:49.182Z,1.90
2019-04-26T15:05:38.219Z,1.50
2019-04-26T15:08:09.732Z,1.63
2019-04-26T15:10:44.392Z,1.90
2019-04-26T15:13:17.371Z,1.80
2019-04-26T15:15:37.132Z,1.60
2019-04-26T15:18:06.582Z,1.60
2019-04-26T15:20:35.895Z,1.77
2019-04-26T15:23:04.363Z,2.17
2019-04-26T15:25:33.558Z,2.27
2019-04-26T15:28:02.603Z,2.37
2019-04-26T15:30:35.794Z,2.33
2019-04-26T15:33:03.146Z,1.97
2019-04-26T15:35:35.897Z,2.50
2019-04-26T15:38:05.740Z,2.70
2019-04-26T15:40:37.527Z,2.40
2019-04-26T15:43:14.791Z,2.50
2019-04-26T15:45:42.923Z,2.33
2019-04-26T15:48:16.173Z,2.10
2019-04-26T15:50:54.025Z,2.13
2019-04-26T15:53:25.877Z,2.30
2019-04-26T15:55:54.259Z,2.00
2019-04-26T15:58:22.678Z,1.80
2019-04-26T16:00:52.761Z,1.77
2019-04-26T16:03:22.744Z,1.50
2019-04-26T16:05:51.515Z,1.80
2019-04-26T16:08:19.977Z,1.93
2019-04-26T16:10:48.465Z,1.50
2019-04-26T16:13:21.080Z,1.80
2019-04-26T16:15:48.814Z,1.60
2019-04-26T16:18:22.397Z,3.00
2019-04-26T16:20:54.197Z,1.40
2019-04-26T16:23:38.031Z,2.00
2019-04-26T16:25:58.096Z,1.30
2019-04-26T16:28:31.246Z,2.13
2019-04-26T16:31:28.536Z,1.90
2019-04-26T16:34:17.875Z,1.40
2019-04-26T16:36:46.467Z,1.30
2019-04-26T16:39:17.808Z,3.53
2019-04-26T16:41:51.876Z,1.63
2019-04-26T16:44:28.020Z,3.60
2019-04-26T16:47:01.325Z,1.13
2019-04-26T16:49:26.637Z,2.20
2019-04-26T16:52:02.189Z,1.57
2019-04-26T16:54:26.901Z,1.50
2019-04-26T16:56:58.981Z,1.60
2019-04-26T16:59:29.867Z,1.50
2019-04-26T17:02:02.414Z,1.60
2019-04-26T17:04:36.297Z,1.77
2019-04-26T17:07:07.092Z,3.03
2019-04-26T17:09:57.168Z,1.30
2019-04-26T17:12:10.479Z,1.80
2019-04-26T17:14:40.563Z,1.63
2019-04-26T17:17:10.811Z,2.10
2019-04-26T17:19:47.357Z,2.30
2019-04-26T17:22:41.854Z,2.17
2019-04-26T17:25:07.006Z,6.23
2019-04-26T17:27:35.408Z,2.10
2019-04-26T17:30:07.307Z,1.93
2019-04-26T17:32:35.730Z,1.60
2019-04-26T17:35:07.614Z,2.13
2019-04-26T17:37:36.728Z,1.97
2019-04-26T17:40:08.662Z,1.67
2019-04-26T17:42:37.320Z,2.10
2019-04-26T17:45:07.353Z,1.80
2019-04-26T17:47:41.847Z,2.33
2019-04-26T17:50:12.465Z,2.43
2019-04-26T17:52:44.048Z,2.10
2019-04-26T17:55:14.250Z,2.13
2019-04-26T17:57:50.203Z,2.23
2019-04-26T18:00:26.692Z,3.30
2019-04-26T18:02:55.774Z,2.37
2019-04-26T18:05:41.816Z,3.03
2019-04-26T18:07:59.680Z,4.23
2019-04-26T18:10:27.515Z,4.60
2019-04-26T18:13:00.451Z,4.90
2019-04-26T18:15:33.269Z,4.73
2019-04-26T18:18:09.640Z,7.13
2019-04-26T18:20:49.481Z,5.30
2019-04-26T18:23:15.415Z,5.43
2019-04-26T18:25:45.061Z,5.30
2019-04-26T18:28:17.873Z,5.07
2019-04-26T18:30:47.728Z,5.90
2019-04-26T18:33:32.846Z,5.67
2019-04-26T18:36:09.746Z,5.40
2019-04-26T18:38:43.120Z,7.37
2019-04-26T18:41:13.646Z,5.97
2019-04-26T18:43:43.042Z,5.53
2019-04-26T18:46:13.689Z,8.67
2019-04-26T18:48:44.017Z,5.63
2019-04-26T18:51:12.332Z,5.90
2019-04-26T18:53:53.096Z,6.10
2019-04-26T18:56:19.614Z,6.77
2019-04-26T18:58:51.496Z,6.10
2019-04-26T19:01:25.423Z,6.30
2019-04-26T19:04:00.284Z,7.27
2019-04-26T19:06:33.523Z,6.70
2019-04-26T19:09:02.383Z,5.63
2019-04-26T19:11:35.565Z,6.30
2019-04-26T19:14:06.542Z,7.07
2019-04-26T19:16:58.811Z,13.53
2019-04-26T19:19:41.870Z,6.90
2019-04-26T19:22:15.687Z,6.77
2019-04-26T19:24:49.393Z,7.73
2019-04-26T19:27:22.400Z,7.20
2019-04-26T19:29:52.855Z,7.03
2019-04-26T19:32:23.401Z,8.30
2019-04-26T19:35:13.956Z,7.23
2019-04-26T19:37:41.137Z,7.97
2019-04-26T19:40:12.396Z,7.93
2019-04-26T19:42:42.479Z,7.73
2019-04-26T19:45:19.320Z,8.07
2019-04-26T19:47:53.623Z,11.23
2019-04-26T19:50:26.401Z,10.30
2019-04-26T19:53:10.318Z,9.77
2019-04-26T19:55:47.446Z,10.90
2019-04-26T19:58:20.492Z,11.13
2019-04-26T20:00:54.578Z,10.60
2019-04-26T20:03:29.315Z,11.50
2019-04-26T20:05:58.657Z,11.33
2019-04-26T20:08:30.283Z,9.80
2019-04-26T20:11:01.486Z,12.23
2019-04-26T20:13:32.454Z,9.63
2019-04-26T20:16:06.300Z,13.20
2019-04-26T20:18:38.854Z,10.30
2019-04-26T20:21:12.877Z,8.97
2019-04-26T20:23:47.465Z,9.80
2019-04-26T20:26:17.173Z,10.70
2019-04-26T20:28:48.640Z,10.80
2019-04-26T20:31:18.696Z,9.27
2019-04-26T20:33:48.364Z,10.00
2019-04-26T20:36:17.902Z,9.73
2019-04-26T20:38:47.541Z,9.60
2019-04-26T20:41:16.829Z,9.47
2019-04-26T20:43:52.339Z,9.60
2019-04-26T20:46:15.872Z,11.03
2019-04-26T20:48:45.537Z,11.87
2019-04-26T20:51:13.994Z,9.97
2019-04-26T20:53:48.161Z,8.57
2019-04-26T20:56:19.970Z,8.67
2019-04-26T20:58:54.290Z,11.73
2019-04-26T21:01:22.767Z,7.73
2019-04-26T21:03:51.802Z,8.20
2019-04-26T21:06:29.261Z,8.47
2019-04-26T21:09:03.388Z,10.23
2019-04-26T21:11:37.146Z,10.57
2019-04-26T21:14:07.705Z,8.83
2019-04-26T21:16:34.250Z,9.33
2019-04-26T21:19:02.710Z,10.60
2019-04-26T21:21:32.115Z,9.93
2019-04-26T21:24:03.656Z,11.03
2019-04-26T21:26:32.989Z,10.47
2019-04-26T21:29:06.714Z,11.20
2019-04-26T21:31:54.116Z,11.67
2019-04-26T21:34:24.157Z,11.47
2019-04-26T21:37:11.371Z,11.57
2019-04-26T21:39:47.548Z,14.43
2019-04-26T21:42:17.278Z,12.00
2019-04-26T21:44:51.847Z,13.37
2019-04-26T21:47:16.129Z,12.27
2019-04-26T21:49:44.769Z,12.83
2019-04-26T21:52:13.618Z,15.10
2019-04-26T21:54:48.448Z,13.07
2019-04-26T21:57:18.367Z,12.63
2019-04-26T21:59:46.079Z,12.93
2019-04-26T22:02:16.157Z,13.03
2019-04-26T22:04:44.545Z,16.87
2019-04-26T22:07:14.577Z,17.70
2019-04-26T22:09:52.797Z,15.27
2019-04-26T22:12:23.347Z,16.57
2019-04-26T22:15:09.220Z,14.47
2019-04-26T22:17:40.602Z,14.93
2019-04-26T22:20:18.975Z,17.30
2019-04-26T22:23:05.904Z,16.73
2019-04-26T22:25:35.945Z,20.97
2019-04-26T22:28:07.169Z,17.57
2019-04-26T22:30:37.262Z,19.43
2019-04-26T22:33:05.688Z,19.07
2019-04-26T22:35:39.385Z,20.60
2019-04-26T22:38:07.791Z,22.37
2019-04-26T22:40:36.211Z,21.60
2019-04-26T22:43:06.256Z,20.07
2019-04-26T22:45:39.609Z,22.20
2019-04-26T22:48:11.517Z,21.10
2019-04-26T22:50:41.129Z,21.83
2019-04-26T22:53:12.031Z,18.47
2019-04-26T22:55:41.045Z,19.77
2019-04-26T22:58:13.430Z,19.93
2019-04-26T23:00:43.567Z,18.27
2019-04-26T23:03:14.320Z,19.30
2019-04-26T23:05:43.262Z,18.53
2019-04-26T23:08:13.591Z,20.50
2019-04-26T23:10:44.216Z,19.23
2019-04-26T23:13:17.785Z,20.70
2019-04-26T23:16:00.572Z,24.30
2019-04-26T23:18:47.829Z,21.23
2019-04-26T23:21:25.041Z,22.93
2019-04-26T23:23:55.202Z,23.33
2019-04-26T23:26:25.216Z,20.27
2019-04-26T23:28:53.643Z,24.63
2019-04-26T23:31:23.608Z,23.67
2019-04-26T23:33:53.757Z,21.47
2019-04-26T23:36:23.946Z,21.63
2019-04-26T23:38:57.224Z,27.40
2019-04-26T23:41:27.307Z,29.37
2019-04-26T23:44:02.912Z,27.27
2019-04-26T23:46:30.533Z,28.73
2019-04-26T23:49:03.033Z,32.47
2019-04-26T23:51:31.510Z,35.90
2019-04-26T23:54:03.322Z,38.37
2019-04-26T23:56:33.477Z,35.73
2019-04-26T23:59:08.257Z,35.23
